sensor_id;sensor_type;location;lat;lon;timestamp;temperature;humidity
6843;DHT22;3460;52.028;8.916;2022-09-30T00:02:15;5.40;99.90
6843;DHT22;3460;52.028;8.916;2022-09-30T00:04:43;5.40;99.90
6843;DHT22;3460;52.028;8.916;2022-09-30T00:07:10;5.40;99.90
6843;DHT22;3460;52.028;8.916;2022-09-30T00:09:37;5.40;99.90
6843;DHT22;3460;52.028;8.916;2022-09-30T00:12:04;5.40;99.90
6843;DHT22;3460;52.028;8.916;2022-09-30T00:14:31;5.30;99.90
6843;DHT22;3460;52.028;8.916;2022-09-30T00:16:58;5.30;99.90
6843;DHT22;3460;52.028;8.916;2022-09-30T00:19:25;5.30;99.90
6843;DHT22;3460;52.028;8.916;2022-09-30T00:21:53;5.30;99.90
6843;DHT22;3460;52.028;8.916;2022-09-30T00:24:19;5.30;99.90
6843;DHT22;3460;52.028;8.916;2022-09-30T00:26:46;5.20;99.90
6843;DHT22;3460;52.028;8.916;2022-09-30T00:29:13;5.20;99.90
6843;DHT22;3460;52.028;8.916;2022-09-30T00:31:40;5.20;99.90
6843;DHT22;3460;52.028;8.916;2022-09-30T00:34:06;5.20;99.90
6843;DHT22;3460;52.028;8.916;2022-09-30T00:36:35;5.30;99.90
6843;DHT22;3460;52.028;8.916;2022-09-30T00:39:04;5.20;99.90
6843;DHT22;3460;52.028;8.916;2022-09-30T00:41:33;5.20;99.90
6843;DHT22;3460;52.028;8.916;2022-09-30T00:44:00;5.20;99.90
6843;DHT22;3460;52.028;8.916;2022-09-30T00:46:32;5.30;99.90
6843;DHT22;3460;52.028;8.916;2022-09-30T00:49:07;5.20;99.90
6843;DHT22;3460;52.028;8.916;2022-09-30T00:51:40;5.20;99.90
6843;DHT22;3460;52.028;8.916;2022-09-30T00:54:13;5.10;99.90
6843;DHT22;3460;52.028;8.916;2022-09-30T00:56:43;5.10;99.90
6843;DHT22;3460;52.028;8.916;2022-09-30T00:59:15;5.00;99.90
6843;DHT22;3460;52.028;8.916;2022-09-30T01:01:42;5.00;99.90
6843;DHT22;3460;52.028;8.916;2022-09-30T01:04:11;5.10;99.90
6843;DHT22;3460;52.028;8.916;2022-09-30T01:06:39;5.10;99.90
6843;DHT22;3460;52.028;8.916;2022-09-30T01:09:06;5.10;99.90
6843;DHT22;3460;52.028;8.916;2022-09-30T01:11:34;5.10;99.90
6843;DHT22;3460;52.028;8.916;2022-09-30T01:14:03;5.00;99.90
6843;DHT22;3460;52.028;8.916;2022-09-30T01:16:48;4.90;99.90
6843;DHT22;3460;52.028;8.916;2022-09-30T01:19:26;4.80;99.90
6843;DHT22;3460;52.028;8.916;2022-09-30T01:22:14;4.90;99.90
6843;DHT22;3460;52.028;8.916;2022-09-30T01:28:37;4.80;99.90
6843;DHT22;3460;52.028;8.916;2022-09-30T01:31:21;4.80;99.90
6843;DHT22;3460;52.028;8.916;2022-09-30T01:33:56;4.80;99.90
6843;DHT22;3460;52.028;8.916;2022-09-30T01:36:37;4.80;99.90
6843;DHT22;3460;52.028;8.916;2022-09-30T01:39:23;4.80;99.90
6843;DHT22;3460;52.028;8.916;2022-09-30T01:41:53;4.80;99.90
6843;DHT22;3460;52.028;8.916;2022-09-30T01:44:28;4.80;99.90
6843;DHT22;3460;52.028;8.916;2022-09-30T01:47:00;4.80;99.90
6843;DHT22;3460;52.028;8.916;2022-09-30T01:49:33;4.80;99.90
6843;DHT22;3460;52.028;8.916;2022-09-30T01:52:06;4.70;99.90
6843;DHT22;3460;52.028;8.916;2022-09-30T01:54:39;4.60;99.90
6843;DHT22;3460;52.028;8.916;2022-09-30T01:57:11;4.60;99.90
6843;DHT22;3460;52.028;8.916;2022-09-30T01:59:47;4.50;99.90
6843;DHT22;3460;52.028;8.916;2022-09-30T02:02:19;4.60;99.90
6843;DHT22;3460;52.028;8.916;2022-09-30T02:04:51;4.60;99.90
6843;DHT22;3460;52.028;8.916;2022-09-30T02:07:24;4.60;99.90
6843;DHT22;3460;52.028;8.916;2022-09-30T02:09:57;4.50;99.90
6843;DHT22;3460;52.028;8.916;2022-09-30T02:12:26;4.50;99.90
6843;DHT22;3460;52.028;8.916;2022-09-30T02:14:59;4.50;99.90
6843;DHT22;3460;52.028;8.916;2022-09-30T02:17:31;4.40;99.90
6843;DHT22;3460;52.028;8.916;2022-09-30T02:20:09;4.30;99.90
6843;DHT22;3460;52.028;8.916;2022-09-30T02:22:40;4.30;99.90
6843;DHT22;3460;52.028;8.916;2022-09-30T02:25:13;4.30;99.90
6843;DHT22;3460;52.028;8.916;2022-09-30T02:27:47;4.30;99.90
6843;DHT22;3460;52.028;8.916;2022-09-30T02:30:16;4.30;99.90
6843;DHT22;3460;52.028;8.916;2022-09-30T02:32:48;4.30;99.90
6843;DHT22;3460;52.028;8.916;2022-09-30T02:35:19;4.20;99.90
6843;DHT22;3460;52.028;8.916;2022-09-30T02:37:50;4.10;99.90
6843;DHT22;3460;52.028;8.916;2022-09-30T02:40:22;4.10;99.90
6843;DHT22;3460;52.028;8.916;2022-09-30T02:42:50;4.20;99.90
6843;DHT22;3460;52.028;8.916;2022-09-30T02:45:20;4.20;99.90
6843;DHT22;3460;52.028;8.916;2022-09-30T02:48:02;4.10;99.90
6843;DHT22;3460;52.028;8.916;2022-09-30T02:50:33;4.30;99.90
6843;DHT22;3460;52.028;8.916;2022-09-30T02:53:17;4.30;99.90
6843;DHT22;3460;52.028;8.916;2022-09-30T02:55:59;4.30;99.90
6843;DHT22;3460;52.028;8.916;2022-09-30T02:58:29;4.30;99.90
6843;DHT22;3460;52.028;8.916;2022-09-30T03:01:01;4.40;99.90
6843;DHT22;3460;52.028;8.916;2022-09-30T03:03:32;4.40;99.90
6843;DHT22;3460;52.028;8.916;2022-09-30T03:06:00;4.50;99.90
6843;DHT22;3460;52.028;8.916;2022-09-30T03:08:27;4.50;99.90
6843;DHT22;3460;52.028;8.916;2022-09-30T03:10:54;4.50;99.90
6843;DHT22;3460;52.028;8.916;2022-09-30T03:13:48;4.50;99.90
6843;DHT22;3460;52.028;8.916;2022-09-30T03:16:21;4.60;99.90
6843;DHT22;3460;52.028;8.916;2022-09-30T03:19:11;4.50;99.90
6843;DHT22;3460;52.028;8.916;2022-09-30T03:21:54;4.50;99.90
6843;DHT22;3460;52.028;8.916;2022-09-30T03:24:38;4.60;99.90
6843;DHT22;3460;52.028;8.916;2022-09-30T03:27:12;4.50;99.90
6843;DHT22;3460;52.028;8.916;2022-09-30T03:29:46;4.50;99.90
6843;DHT22;3460;52.028;8.916;2022-09-30T03:32:26;4.60;99.90
6843;DHT22;3460;52.028;8.916;2022-09-30T03:35:03;4.50;99.90
6843;DHT22;3460;52.028;8.916;2022-09-30T03:37:42;4.50;99.90
6843;DHT22;3460;52.028;8.916;2022-09-30T03:40:15;4.60;99.90
6843;DHT22;3460;52.028;8.916;2022-09-30T03:42:49;4.60;99.90
6843;DHT22;3460;52.028;8.916;2022-09-30T03:45:22;4.50;99.90
6843;DHT22;3460;52.028;8.916;2022-09-30T03:47:53;4.40;99.90
6843;DHT22;3460;52.028;8.916;2022-09-30T03:50:23;4.50;99.90
6843;DHT22;3460;52.028;8.916;2022-09-30T03:52:51;4.50;99.90
6843;DHT22;3460;52.028;8.916;2022-09-30T03:55:18;4.30;99.90
6843;DHT22;3460;52.028;8.916;2022-09-30T03:57:46;4.20;99.90
6843;DHT22;3460;52.028;8.916;2022-09-30T04:00:14;4.10;99.90
6843;DHT22;3460;52.028;8.916;2022-09-30T04:02:41;4.10;99.90
6843;DHT22;3460;52.028;8.916;2022-09-30T04:05:07;4.00;99.90
6843;DHT22;3460;52.028;8.916;2022-09-30T04:07:35;4.00;99.90
6843;DHT22;3460;52.028;8.916;2022-09-30T04:10:03;4.00;99.90
6843;DHT22;3460;52.028;8.916;2022-09-30T04:12:30;4.00;99.90
6843;DHT22;3460;52.028;8.916;2022-09-30T04:14:57;3.90;99.90
6843;DHT22;3460;52.028;8.916;2022-09-30T04:17:23;3.90;99.90
6843;DHT22;3460;52.028;8.916;2022-09-30T04:19:50;3.90;99.90
6843;DHT22;3460;52.028;8.916;2022-09-30T04:22:17;3.90;99.90
6843;DHT22;3460;52.028;8.916;2022-09-30T04:24:45;3.80;99.90
6843;DHT22;3460;52.028;8.916;2022-09-30T04:27:12;3.80;99.90
6843;DHT22;3460;52.028;8.916;2022-09-30T04:29:38;3.80;99.90
6843;DHT22;3460;52.028;8.916;2022-09-30T04:32:05;3.80;99.90
6843;DHT22;3460;52.028;8.916;2022-09-30T04:34:31;3.70;99.90
6843;DHT22;3460;52.028;8.916;2022-09-30T04:36:58;3.60;99.90
6843;DHT22;3460;52.028;8.916;2022-09-30T04:39:25;3.60;99.90
6843;DHT22;3460;52.028;8.916;2022-09-30T04:41:53;3.50;99.90
6843;DHT22;3460;52.028;8.916;2022-09-30T04:44:20;3.50;99.90
6843;DHT22;3460;52.028;8.916;2022-09-30T04:46:46;3.60;99.90
6843;DHT22;3460;52.028;8.916;2022-09-30T04:49:13;3.50;99.90
6843;DHT22;3460;52.028;8.916;2022-09-30T04:51:40;3.60;99.90
6843;DHT22;3460;52.028;8.916;2022-09-30T04:54:10;3.60;99.90
6843;DHT22;3460;52.028;8.916;2022-09-30T04:56:37;3.60;99.90
6843;DHT22;3460;52.028;8.916;2022-09-30T04:59:05;3.60;99.90
6843;DHT22;3460;52.028;8.916;2022-09-30T05:01:33;3.60;99.90
6843;DHT22;3460;52.028;8.916;2022-09-30T05:04:00;3.50;99.90
6843;DHT22;3460;52.028;8.916;2022-09-30T05:06:27;3.60;99.90
6843;DHT22;3460;52.028;8.916;2022-09-30T05:08:53;3.60;99.90
6843;DHT22;3460;52.028;8.916;2022-09-30T05:11:20;3.60;99.90
6843;DHT22;3460;52.028;8.916;2022-09-30T05:13:48;3.60;99.90
6843;DHT22;3460;52.028;8.916;2022-09-30T05:16:17;3.60;99.90
6843;DHT22;3460;52.028;8.916;2022-09-30T05:18:44;3.60;99.90
6843;DHT22;3460;52.028;8.916;2022-09-30T05:21:12;3.70;99.90
6843;DHT22;3460;52.028;8.916;2022-09-30T05:23:39;3.70;99.90
6843;DHT22;3460;52.028;8.916;2022-09-30T05:26:06;3.80;99.90
6843;DHT22;3460;52.028;8.916;2022-09-30T05:28:33;3.80;99.90
6843;DHT22;3460;52.028;8.916;2022-09-30T05:31:01;3.80;99.90
6843;DHT22;3460;52.028;8.916;2022-09-30T05:33:31;3.70;99.90
6843;DHT22;3460;52.028;8.916;2022-09-30T05:35:59;3.70;99.90
6843;DHT22;3460;52.028;8.916;2022-09-30T05:38:26;3.70;99.90
6843;DHT22;3460;52.028;8.916;2022-09-30T05:40:52;3.70;99.90
6843;DHT22;3460;52.028;8.916;2022-09-30T05:43:20;3.70;99.90
6843;DHT22;3460;52.028;8.916;2022-09-30T05:45:52;3.80;99.90
6843;DHT22;3460;52.028;8.916;2022-09-30T05:48:19;3.80;99.90
6843;DHT22;3460;52.028;8.916;2022-09-30T05:50:47;3.90;99.90
6843;DHT22;3460;52.028;8.916;2022-09-30T05:53:15;4.00;99.90
6843;DHT22;3460;52.028;8.916;2022-09-30T05:55:45;4.10;99.90
6843;DHT22;3460;52.028;8.916;2022-09-30T05:58:12;4.20;99.90
6843;DHT22;3460;52.028;8.916;2022-09-30T06:00:40;4.20;99.90
6843;DHT22;3460;52.028;8.916;2022-09-30T06:03:06;4.30;99.90
6843;DHT22;3460;52.028;8.916;2022-09-30T06:05:33;4.30;99.90
6843;DHT22;3460;52.028;8.916;2022-09-30T06:08:02;4.40;99.90
6843;DHT22;3460;52.028;8.916;2022-09-30T06:10:29;4.40;99.90
6843;DHT22;3460;52.028;8.916;2022-09-30T06:12:56;4.40;99.90
6843;DHT22;3460;52.028;8.916;2022-09-30T06:15:23;4.50;99.90
6843;DHT22;3460;52.028;8.916;2022-09-30T06:17:52;4.40;99.90
6843;DHT22;3460;52.028;8.916;2022-09-30T06:20:19;4.50;99.90
6843;DHT22;3460;52.028;8.916;2022-09-30T06:22:45;4.50;99.90
6843;DHT22;3460;52.028;8.916;2022-09-30T06:25:14;4.60;99.90
6843;DHT22;3460;52.028;8.916;2022-09-30T06:27:43;4.60;99.90
6843;DHT22;3460;52.028;8.916;2022-09-30T06:30:11;4.60;99.90
6843;DHT22;3460;52.028;8.916;2022-09-30T06:32:38;4.70;99.90
6843;DHT22;3460;52.028;8.916;2022-09-30T06:35:05;4.60;99.90
6843;DHT22;3460;52.028;8.916;2022-09-30T06:37:31;4.70;99.90
6843;DHT22;3460;52.028;8.916;2022-09-30T06:40:01;4.80;99.90
6843;DHT22;3460;52.028;8.916;2022-09-30T06:42:29;4.80;99.90
6843;DHT22;3460;52.028;8.916;2022-09-30T06:44:56;4.80;99.90
6843;DHT22;3460;52.028;8.916;2022-09-30T06:47:22;4.90;99.90
6843;DHT22;3460;52.028;8.916;2022-09-30T06:49:49;5.10;99.90
6843;DHT22;3460;52.028;8.916;2022-09-30T06:52:17;5.10;99.90
6843;DHT22;3460;52.028;8.916;2022-09-30T06:54:44;5.20;99.90
6843;DHT22;3460;52.028;8.916;2022-09-30T06:57:11;5.30;99.90
6843;DHT22;3460;52.028;8.916;2022-09-30T06:59:39;5.40;99.90
6843;DHT22;3460;52.028;8.916;2022-09-30T07:02:08;5.40;99.90
6843;DHT22;3460;52.028;8.916;2022-09-30T07:04:35;5.50;99.90
6843;DHT22;3460;52.028;8.916;2022-09-30T07:07:02;5.60;99.90
6843;DHT22;3460;52.028;8.916;2022-09-30T07:09:29;5.70;99.90
6843;DHT22;3460;52.028;8.916;2022-09-30T07:11:56;5.90;99.90
6843;DHT22;3460;52.028;8.916;2022-09-30T07:14:23;6.00;99.90
6843;DHT22;3460;52.028;8.916;2022-09-30T07:16:51;6.10;99.90
6843;DHT22;3460;52.028;8.916;2022-09-30T07:19:18;6.30;99.90
6843;DHT22;3460;52.028;8.916;2022-09-30T07:21:47;6.40;99.90
6843;DHT22;3460;52.028;8.916;2022-09-30T07:24:14;6.70;99.90
6843;DHT22;3460;52.028;8.916;2022-09-30T07:26:41;6.70;99.90
6843;DHT22;3460;52.028;8.916;2022-09-30T07:29:09;6.90;99.90
6843;DHT22;3460;52.028;8.916;2022-09-30T07:31:37;7.00;99.90
6843;DHT22;3460;52.028;8.916;2022-09-30T07:34:07;7.10;99.90
6843;DHT22;3460;52.028;8.916;2022-09-30T07:36:35;7.20;99.90
6843;DHT22;3460;52.028;8.916;2022-09-30T07:39:03;7.30;99.90
6843;DHT22;3460;52.028;8.916;2022-09-30T07:41:31;7.40;99.90
6843;DHT22;3460;52.028;8.916;2022-09-30T07:43:58;7.50;99.90
6843;DHT22;3460;52.028;8.916;2022-09-30T07:46:26;7.80;99.90
6843;DHT22;3460;52.028;8.916;2022-09-30T07:48:55;7.90;99.90
6843;DHT22;3460;52.028;8.916;2022-09-30T07:51:27;8.10;99.90
6843;DHT22;3460;52.028;8.916;2022-09-30T07:53:57;8.10;99.90
6843;DHT22;3460;52.028;8.916;2022-09-30T07:56:25;8.10;99.90
6843;DHT22;3460;52.028;8.916;2022-09-30T07:58:54;8.10;99.90
6843;DHT22;3460;52.028;8.916;2022-09-30T08:01:21;8.20;99.90
6843;DHT22;3460;52.028;8.916;2022-09-30T08:03:52;8.20;99.90
6843;DHT22;3460;52.028;8.916;2022-09-30T08:06:20;8.30;99.90
6843;DHT22;3460;52.028;8.916;2022-09-30T08:08:50;8.40;99.90
6843;DHT22;3460;52.028;8.916;2022-09-30T08:11:17;8.40;99.90
6843;DHT22;3460;52.028;8.916;2022-09-30T08:13:44;8.50;99.90
6843;DHT22;3460;52.028;8.916;2022-09-30T08:16:10;8.80;99.90
6843;DHT22;3460;52.028;8.916;2022-09-30T08:18:37;8.90;99.90
6843;DHT22;3460;52.028;8.916;2022-09-30T08:21:05;9.10;99.90
6843;DHT22;3460;52.028;8.916;2022-09-30T08:23:32;9.20;99.90
6843;DHT22;3460;52.028;8.916;2022-09-30T08:26:02;9.30;99.90
6843;DHT22;3460;52.028;8.916;2022-09-30T08:28:29;9.30;99.90
6843;DHT22;3460;52.028;8.916;2022-09-30T08:31:03;9.20;99.90
6843;DHT22;3460;52.028;8.916;2022-09-30T08:33:30;9.30;99.90
6843;DHT22;3460;52.028;8.916;2022-09-30T08:36:01;9.50;99.90
6843;DHT22;3460;52.028;8.916;2022-09-30T08:38:28;9.80;99.90
6843;DHT22;3460;52.028;8.916;2022-09-30T08:41:07;9.90;99.90
6843;DHT22;3460;52.028;8.916;2022-09-30T08:43:43;10.10;99.90
6843;DHT22;3460;52.028;8.916;2022-09-30T08:46:19;10.30;99.90
6843;DHT22;3460;52.028;8.916;2022-09-30T08:48:57;10.50;99.90
6843;DHT22;3460;52.028;8.916;2022-09-30T08:51:30;10.40;99.90
6843;DHT22;3460;52.028;8.916;2022-09-30T08:54:02;10.20;99.90
6843;DHT22;3460;52.028;8.916;2022-09-30T08:56:32;10.50;99.90
6843;DHT22;3460;52.028;8.916;2022-09-30T08:59:04;10.40;99.90
6843;DHT22;3460;52.028;8.916;2022-09-30T09:01:33;10.30;99.90
6843;DHT22;3460;52.028;8.916;2022-09-30T09:04:03;10.40;99.90
6843;DHT22;3460;52.028;8.916;2022-09-30T09:06:35;10.40;99.90
6843;DHT22;3460;52.028;8.916;2022-09-30T09:09:27;10.40;99.90
6843;DHT22;3460;52.028;8.916;2022-09-30T09:12:08;10.50;99.90
6843;DHT22;3460;52.028;8.916;2022-09-30T09:14:43;10.70;99.90
6843;DHT22;3460;52.028;8.916;2022-09-30T09:17:26;10.90;99.90
6843;DHT22;3460;52.028;8.916;2022-09-30T09:20:02;11.10;99.90
6843;DHT22;3460;52.028;8.916;2022-09-30T09:22:33;11.20;99.90
6843;DHT22;3460;52.028;8.916;2022-09-30T09:25:01;11.40;99.90
6843;DHT22;3460;52.028;8.916;2022-09-30T09:27:38;11.50;99.90
6843;DHT22;3460;52.028;8.916;2022-09-30T09:30:09;11.60;99.90
6843;DHT22;3460;52.028;8.916;2022-09-30T09:32:37;11.70;99.90
6843;DHT22;3460;52.028;8.916;2022-09-30T09:35:13;11.80;99.90
6843;DHT22;3460;52.028;8.916;2022-09-30T09:37:46;11.70;99.90
6843;DHT22;3460;52.028;8.916;2022-09-30T09:40:42;11.70;99.90
6843;DHT22;3460;52.028;8.916;2022-09-30T09:43:27;11.80;99.90
6843;DHT22;3460;52.028;8.916;2022-09-30T09:46:01;12.10;99.90
6843;DHT22;3460;52.028;8.916;2022-09-30T09:48:29;12.20;99.90
6843;DHT22;3460;52.028;8.916;2022-09-30T09:51:03;12.40;99.90
6843;DHT22;3460;52.028;8.916;2022-09-30T09:53:46;12.50;99.90
6843;DHT22;3460;52.028;8.916;2022-09-30T09:56:16;12.60;99.90
6843;DHT22;3460;52.028;8.916;2022-09-30T09:59:09;12.80;99.90
6843;DHT22;3460;52.028;8.916;2022-09-30T10:01:39;12.90;99.90
6843;DHT22;3460;52.028;8.916;2022-09-30T10:04:16;13.10;99.90
6843;DHT22;3460;52.028;8.916;2022-09-30T10:06:49;13.20;99.90
6843;DHT22;3460;52.028;8.916;2022-09-30T10:09:28;13.30;99.90
6843;DHT22;3460;52.028;8.916;2022-09-30T10:15:03;13.30;99.90
6843;DHT22;3460;52.028;8.916;2022-09-30T10:17:31;13.30;99.90
6843;DHT22;3460;52.028;8.916;2022-09-30T10:20:01;13.50;99.90
6843;DHT22;3460;52.028;8.916;2022-09-30T10:22:32;13.60;99.90
6843;DHT22;3460;52.028;8.916;2022-09-30T10:25:16;13.70;99.90
6843;DHT22;3460;52.028;8.916;2022-09-30T10:27:48;13.80;99.90
6843;DHT22;3460;52.028;8.916;2022-09-30T10:30:32;13.80;99.90
6843;DHT22;3460;52.028;8.916;2022-09-30T10:33:00;14.00;99.90
6843;DHT22;3460;52.028;8.916;2022-09-30T10:35:29;14.10;99.90
6843;DHT22;3460;52.028;8.916;2022-09-30T10:37:57;14.30;99.90
6843;DHT22;3460;52.028;8.916;2022-09-30T10:40:27;14.50;99.90
6843;DHT22;3460;52.028;8.916;2022-09-30T10:42:55;14.60;99.90
6843;DHT22;3460;52.028;8.916;2022-09-30T10:45:23;14.70;99.90
6843;DHT22;3460;52.028;8.916;2022-09-30T10:47:53;14.70;99.90
6843;DHT22;3460;52.028;8.916;2022-09-30T10:50:22;14.70;99.90
6843;DHT22;3460;52.028;8.916;2022-09-30T10:52:54;14.70;99.90
6843;DHT22;3460;52.028;8.916;2022-09-30T10:55:27;14.80;99.90
6843;DHT22;3460;52.028;8.916;2022-09-30T10:58:02;14.90;99.90
6843;DHT22;3460;52.028;8.916;2022-09-30T11:00:30;14.90;99.90
6843;DHT22;3460;52.028;8.916;2022-09-30T11:03:04;14.90;99.90
6843;DHT22;3460;52.028;8.916;2022-09-30T11:05:34;15.00;99.90
6843;DHT22;3460;52.028;8.916;2022-09-30T11:08:05;14.90;99.90
6843;DHT22;3460;52.028;8.916;2022-09-30T11:10:43;14.90;99.90
6843;DHT22;3460;52.028;8.916;2022-09-30T11:13:16;15.00;99.90
6843;DHT22;3460;52.028;8.916;2022-09-30T11:15:55;15.00;99.90
6843;DHT22;3460;52.028;8.916;2022-09-30T11:18:29;15.00;99.90
6843;DHT22;3460;52.028;8.916;2022-09-30T11:21:01;15.00;99.90
6843;DHT22;3460;52.028;8.916;2022-09-30T11:23:33;15.00;99.90
6843;DHT22;3460;52.028;8.916;2022-09-30T11:26:06;15.10;99.90
6843;DHT22;3460;52.028;8.916;2022-09-30T11:28:42;15.20;99.90
6843;DHT22;3460;52.028;8.916;2022-09-30T11:31:17;15.30;99.90
6843;DHT22;3460;52.028;8.916;2022-09-30T11:33:59;15.30;99.90
6843;DHT22;3460;52.028;8.916;2022-09-30T11:36:34;15.30;99.90
6843;DHT22;3460;52.028;8.916;2022-09-30T11:39:20;15.40;99.90
6843;DHT22;3460;52.028;8.916;2022-09-30T11:41:57;15.40;99.90
6843;DHT22;3460;52.028;8.916;2022-09-30T11:44:31;15.50;99.90
6843;DHT22;3460;52.028;8.916;2022-09-30T11:47:27;15.30;99.90
6843;DHT22;3460;52.028;8.916;2022-09-30T11:50:07;15.20;99.90
6843;DHT22;3460;52.028;8.916;2022-09-30T11:52:47;15.30;99.90
6843;DHT22;3460;52.028;8.916;2022-09-30T11:55:29;15.30;99.90
6843;DHT22;3460;52.028;8.916;2022-09-30T11:58:01;15.30;99.90
6843;DHT22;3460;52.028;8.916;2022-09-30T12:00:30;15.40;99.90
6843;DHT22;3460;52.028;8.916;2022-09-30T12:03:03;15.50;99.90
6843;DHT22;3460;52.028;8.916;2022-09-30T12:05:36;15.60;99.90
6843;DHT22;3460;52.028;8.916;2022-09-30T12:08:10;15.50;99.90
6843;DHT22;3460;52.028;8.916;2022-09-30T12:10:42;15.80;99.90
6843;DHT22;3460;52.028;8.916;2022-09-30T12:13:15;15.80;99.90
6843;DHT22;3460;52.028;8.916;2022-09-30T12:15:43;15.80;99.90
6843;DHT22;3460;52.028;8.916;2022-09-30T12:18:14;15.80;99.90
6843;DHT22;3460;52.028;8.916;2022-09-30T12:20:47;15.80;99.90
6843;DHT22;3460;52.028;8.916;2022-09-30T12:23:19;15.90;99.90
6843;DHT22;3460;52.028;8.916;2022-09-30T12:25:49;15.80;99.90
6843;DHT22;3460;52.028;8.916;2022-09-30T12:28:24;15.80;99.90
6843;DHT22;3460;52.028;8.916;2022-09-30T12:31:25;15.90;99.90
6843;DHT22;3460;52.028;8.916;2022-09-30T12:34:04;15.90;99.90
6843;DHT22;3460;52.028;8.916;2022-09-30T12:36:43;16.00;99.90
6843;DHT22;3460;52.028;8.916;2022-09-30T12:39:43;16.00;99.90
6843;DHT22;3460;52.028;8.916;2022-09-30T12:48:03;15.80;99.90
6843;DHT22;3460;52.028;8.916;2022-09-30T12:50:34;15.80;99.90
6843;DHT22;3460;52.028;8.916;2022-09-30T12:53:14;15.90;99.90
6843;DHT22;3460;52.028;8.916;2022-09-30T12:55:43;16.00;99.90
6843;DHT22;3460;52.028;8.916;2022-09-30T12:58:19;16.00;99.90
6843;DHT22;3460;52.028;8.916;2022-09-30T13:01:03;16.10;99.90
6843;DHT22;3460;52.028;8.916;2022-09-30T13:03:44;16.20;99.90
6843;DHT22;3460;52.028;8.916;2022-09-30T13:06:14;16.20;99.90
6843;DHT22;3460;52.028;8.916;2022-09-30T13:08:47;16.20;99.90
6843;DHT22;3460;52.028;8.916;2022-09-30T13:11:33;16.20;99.90
6843;DHT22;3460;52.028;8.916;2022-09-30T13:14:21;16.20;99.90
6843;DHT22;3460;52.028;8.916;2022-09-30T13:17:24;16.10;99.90
6843;DHT22;3460;52.028;8.916;2022-09-30T13:19:53;16.10;99.90
6843;DHT22;3460;52.028;8.916;2022-09-30T13:22:52;16.20;99.90
6843;DHT22;3460;52.028;8.916;2022-09-30T13:25:21;16.30;99.90
6843;DHT22;3460;52.028;8.916;2022-09-30T13:27:49;16.20;99.90
6843;DHT22;3460;52.028;8.916;2022-09-30T13:30:34;16.00;99.90
6843;DHT22;3460;52.028;8.916;2022-09-30T13:33:29;15.90;99.90
6843;DHT22;3460;52.028;8.916;2022-09-30T13:36:06;16.00;99.90
6843;DHT22;3460;52.028;8.916;2022-09-30T13:38:37;16.00;99.90
6843;DHT22;3460;52.028;8.916;2022-09-30T13:41:13;16.00;99.90
6843;DHT22;3460;52.028;8.916;2022-09-30T13:43:47;15.90;99.90
6843;DHT22;3460;52.028;8.916;2022-09-30T13:46:23;15.90;99.90
6843;DHT22;3460;52.028;8.916;2022-09-30T13:48:57;16.00;99.90
6843;DHT22;3460;52.028;8.916;2022-09-30T13:51:27;16.00;99.90
6843;DHT22;3460;52.028;8.916;2022-09-30T13:53:57;16.10;99.90
6843;DHT22;3460;52.028;8.916;2022-09-30T13:56:29;16.10;99.90
6843;DHT22;3460;52.028;8.916;2022-09-30T14:02:01;16.10;99.90
6843;DHT22;3460;52.028;8.916;2022-09-30T14:04:43;16.10;99.90
6843;DHT22;3460;52.028;8.916;2022-09-30T14:07:18;16.00;99.90
6843;DHT22;3460;52.028;8.916;2022-09-30T14:10:02;16.00;99.90
6843;DHT22;3460;52.028;8.916;2022-09-30T14:12:45;16.00;99.90
6843;DHT22;3460;52.028;8.916;2022-09-30T14:18:36;16.00;99.90
6843;DHT22;3460;52.028;8.916;2022-09-30T14:21:21;16.00;99.90
6843;DHT22;3460;52.028;8.916;2022-09-30T14:23:56;16.10;99.90
6843;DHT22;3460;52.028;8.916;2022-09-30T14:26:37;16.00;99.90
6843;DHT22;3460;52.028;8.916;2022-09-30T14:29:15;16.00;99.90
6843;DHT22;3460;52.028;8.916;2022-09-30T14:31:46;16.00;99.90
6843;DHT22;3460;52.028;8.916;2022-09-30T14:34:15;16.00;99.90
6843;DHT22;3460;52.028;8.916;2022-09-30T14:36:45;16.00;99.90
6843;DHT22;3460;52.028;8.916;2022-09-30T14:39:16;16.10;99.90
6843;DHT22;3460;52.028;8.916;2022-09-30T14:41:49;16.00;99.90
6843;DHT22;3460;52.028;8.916;2022-09-30T14:44:18;16.00;99.90
6843;DHT22;3460;52.028;8.916;2022-09-30T14:46:47;16.00;99.90
6843;DHT22;3460;52.028;8.916;2022-09-30T14:49:18;16.00;99.90
6843;DHT22;3460;52.028;8.916;2022-09-30T14:51:46;15.90;99.90
6843;DHT22;3460;52.028;8.916;2022-09-30T14:54:17;15.90;99.90
6843;DHT22;3460;52.028;8.916;2022-09-30T14:56:44;16.00;99.90
6843;DHT22;3460;52.028;8.916;2022-09-30T14:59:17;16.00;99.90
6843;DHT22;3460;52.028;8.916;2022-09-30T15:01:45;16.10;99.90
6843;DHT22;3460;52.028;8.916;2022-09-30T15:04:16;16.00;99.90
6843;DHT22;3460;52.028;8.916;2022-09-30T15:06:46;16.00;99.90
6843;DHT22;3460;52.028;8.916;2022-09-30T15:09:17;16.00;99.90
6843;DHT22;3460;52.028;8.916;2022-09-30T15:11:46;15.80;99.90
6843;DHT22;3460;52.028;8.916;2022-09-30T15:14:17;15.70;99.90
6843;DHT22;3460;52.028;8.916;2022-09-30T15:16:47;15.90;99.90
6843;DHT22;3460;52.028;8.916;2022-09-30T15:19:18;15.90;99.90
6843;DHT22;3460;52.028;8.916;2022-09-30T15:21:47;15.90;99.90
6843;DHT22;3460;52.028;8.916;2022-09-30T15:24:15;15.90;99.90
6843;DHT22;3460;52.028;8.916;2022-09-30T15:26:43;15.80;99.90
6843;DHT22;3460;52.028;8.916;2022-09-30T15:29:12;15.80;99.90
6843;DHT22;3460;52.028;8.916;2022-09-30T15:31:43;15.80;99.90
6843;DHT22;3460;52.028;8.916;2022-09-30T15:34:14;15.80;99.90
6843;DHT22;3460;52.028;8.916;2022-09-30T15:36:42;15.80;99.90
6843;DHT22;3460;52.028;8.916;2022-09-30T15:39:20;15.80;99.90
6843;DHT22;3460;52.028;8.916;2022-09-30T15:41:48;15.80;99.90
6843;DHT22;3460;52.028;8.916;2022-09-30T15:44:17;15.80;99.90
6843;DHT22;3460;52.028;8.916;2022-09-30T15:47:02;15.70;99.90
6843;DHT22;3460;52.028;8.916;2022-09-30T15:49:31;15.70;99.90
6843;DHT22;3460;52.028;8.916;2022-09-30T15:55:30;15.60;99.90
6843;DHT22;3460;52.028;8.916;2022-09-30T15:57:53;15.50;99.90
6843;DHT22;3460;52.028;8.916;2022-09-30T16:00:35;15.50;99.90
6843;DHT22;3460;52.028;8.916;2022-09-30T16:03:26;15.50;99.90
6843;DHT22;3460;52.028;8.916;2022-09-30T16:06:04;15.40;99.90
6843;DHT22;3460;52.028;8.916;2022-09-30T16:08:38;15.30;99.90
6843;DHT22;3460;52.028;8.916;2022-09-30T16:11:06;15.20;99.90
6843;DHT22;3460;52.028;8.916;2022-09-30T16:13:35;15.10;99.90
6843;DHT22;3460;52.028;8.916;2022-09-30T16:16:18;15.10;99.90
6843;DHT22;3460;52.028;8.916;2022-09-30T16:18:47;15.00;99.90
6843;DHT22;3460;52.028;8.916;2022-09-30T16:21:35;15.00;99.90
6843;DHT22;3460;52.028;8.916;2022-09-30T16:27:13;14.90;99.90
6843;DHT22;3460;52.028;8.916;2022-09-30T16:29:44;14.80;99.90
6843;DHT22;3460;52.028;8.916;2022-09-30T16:32:11;14.70;99.90
6843;DHT22;3460;52.028;8.916;2022-09-30T16:34:40;14.60;99.90
6843;DHT22;3460;52.028;8.916;2022-09-30T16:37:10;14.50;99.90
6843;DHT22;3460;52.028;8.916;2022-09-30T16:39:37;14.40;99.90
6843;DHT22;3460;52.028;8.916;2022-09-30T16:42:04;14.30;99.90
6843;DHT22;3460;52.028;8.916;2022-09-30T16:44:31;14.20;99.90
6843;DHT22;3460;52.028;8.916;2022-09-30T16:47:00;14.10;99.90
6843;DHT22;3460;52.028;8.916;2022-09-30T16:49:27;14.00;99.90
6843;DHT22;3460;52.028;8.916;2022-09-30T16:51:55;13.80;99.90
6843;DHT22;3460;52.028;8.916;2022-09-30T16:54:22;13.70;99.90
6843;DHT22;3460;52.028;8.916;2022-09-30T16:56:48;13.60;99.90
6843;DHT22;3460;52.028;8.916;2022-09-30T16:59:16;13.40;99.90
6843;DHT22;3460;52.028;8.916;2022-09-30T17:01:43;13.30;99.90
6843;DHT22;3460;52.028;8.916;2022-09-30T17:04:10;13.10;99.90
6843;DHT22;3460;52.028;8.916;2022-09-30T17:06:37;13.10;99.90